Thursday, October 19, 2017, 7:08 AM EDT
Back to Local

KLOM, Philadelphia, Wings Field Airport

Location: Blue Bell, PA, United States Lat: 40.138
Local Time: 7:08 AM EDT (11:08 GMT) Lon: -75.265
Time Zone: US/Eastern Elev: 301 ft

Show me the last for .
Show Coded

Time T Td Feel RH Dir Speed Gust Alt SLP Vis Weather Sky Remarks
2017-10-19 06:35 37 37 - 100 - Calm - 30.28 - 4 CLR None
2017-10-19 06:15 37 37 - 100 - Calm - 30.28 - 4 CLR None
2017-10-19 05:55 37 37 - 100 - Calm - 30.28 - 2 CLR Variable visibility
2017-10-19 05:35 37 37 - 100 - Calm - 30.29 - 1 VV007 None
2017-10-19 05:15 39 39 - 100 - Calm - 30.28 - 1 VV007 None
2017-10-19 04:55 37 37 - 100 - Calm - 30.28 - 0 VV005 None
2017-10-19 04:35 39 39 - 100 - Calm - 30.28 - 1 VV007 None
2017-10-19 04:15 39 39 - 100 - Calm - 30.28 - 0 VV005 None
2017-10-19 03:55 39 39 - 100 - Calm - 30.28 - 5 CLR None
2017-10-19 03:35 41 41 - 100 - Calm - 30.28 - 10 CLR None
2017-10-19 03:15 41 41 - 100 - Calm - 30.29 - 1 VV007 None
2017-10-19 02:55 41 41 - 100 - Calm - 30.29 - 10 CLR None
2017-10-19 02:35 41 41 - 100 - Calm - 30.29 - 10 CLR None
2017-10-19 02:15 41 41 - 100 - Calm - 30.30 - 10 CLR None
2017-10-19 01:55 41 41 - 100 - Calm - 30.30 - 10 CLR None
2017-10-19 01:35 41 41 - 100 - Calm - 30.30 - 10 CLR None
2017-10-19 01:15 41 41 - 100 - Calm - 30.30 - 10 CLR None
2017-10-19 00:55 41 41 - 100 - Calm - 30.31 - 10 CLR None
2017-10-19 00:35 43 43 - 100 - Calm - 30.31 - 10 CLR None
2017-10-19 00:15 43 43 - 100 - Calm - 30.31 - 10 CLR None
2017-10-18 23:55 43 43 - 100 - Calm - 30.31 - 10 CLR None
2017-10-18 23:35 43 43 - 100 - Calm - 30.32 - 10 CLR None
2017-10-18 23:15 45 45 - 100 - Calm - 30.32 - 10 CLR None
2017-10-18 22:55 45 45 - 100 - Calm - 30.32 - 10 CLR None
2017-10-18 22:35 45 45 - 100 - Calm - 30.32 - 10 CLR None
2017-10-18 22:15 45 45 - 100 - Calm - 30.32 - 10 CLR None
2017-10-18 21:55 46 45 - 93 - Calm - 30.32 - 10 CLR None
2017-10-18 21:35 46 46 - 100 - Calm - 30.33 - 10 CLR None
2017-10-18 21:15 48 46 - 93 - Calm - 30.32 - 10 CLR None
2017-10-18 20:55 46 46 - 100 - Calm - 30.32 - 10 CLR None
2017-10-18 20:35 50 46 - 87 - Calm - 30.32 - 10 CLR None
2017-10-18 20:15 52 46 - 81 - Calm - 30.31 - 10 CLR None
2017-10-18 19:55 52 48 - 87 - Calm - 30.31 - 10 CLR None
2017-10-18 19:35 50 48 - 93 - Calm - 30.31 - 10 CLR None
2017-10-18 19:15 52 46 - 81 - Calm - 30.30 - 10 CLR None
2017-10-18 18:55 55 46 - 71 190° 3 - 30.30 - 10 CLR None
2017-10-18 18:35 55 46 - 71 210° 3 - 30.30 - 10 CLR None
2017-10-18 18:15 61 45 - 55 - Calm - 30.29 - 10 CLR None
2017-10-18 17:55 64 45 - 48 250° 3 - 30.29 - 10 CLR None
2017-10-18 17:35 68 45 - 42 230° 5 - 30.29 - 10 CLR None
2017-10-18 17:15 68 45 - 42 - Calm - 30.29 - 10 CLR None
2017-10-18 16:55 68 43 - 40 250° 3 - 30.29 - 10 CLR None
2017-10-18 16:35 70 45 - 40 240° 5 - 30.29 - 10 CLR None
2017-10-18 16:15 70 45 - 40 280° 5 - 30.29 - 10 CLR None
2017-10-18 15:55 70 46 - 43 - Calm - 30.30 - 10 CLR None
2017-10-18 15:35 70 46 - 43 220° 6 - 30.30 - 10 CLR None
2017-10-18 15:15 70 45 - 40 - Calm - 30.30 - 10 CLR None
2017-10-18 14:55 70 45 - 40 210° 5 - 30.31 - 10 CLR None
2017-10-18 14:35 70 46 - 43 190° 6 - 30.31 - 10 CLR None
2017-10-18 14:15 68 46 - 45 - Calm - 30.32 - 10 CLR None
2017-10-18 13:55 68 46 - 45 - Calm - 30.32 - 10 CLR None
2017-10-18 13:35 66 45 - 45 220° 5 - 30.33 - 10 CLR None
2017-10-18 13:15 66 45 - 45 - Calm - 30.33 - 10 CLR None
2017-10-18 12:55 66 45 - 45 300° 3 - 30.35 - 10 CLR None
2017-10-18 12:35 64 45 - 48 - Calm - 30.35 - 10 CLR None
2017-10-18 12:15 64 45 - 48 280° 3 - 30.36 - 10 CLR None
2017-10-18 11:55 63 43 - 48 270° 6 - 30.37 - 10 CLR None
2017-10-18 11:35 63 43 - 48 280° 6 - 30.37 - 10 CLR None
2017-10-18 11:15 61 43 - 51 300° 6 - 30.37 - 10 CLR None
2017-10-18 10:55 61 41 - 48 270° 5 - 30.37 - 10 CLR None
2017-10-18 10:35 59 41 - 51 270° 3 - 30.37 - 10 CLR None
2017-10-18 10:15 55 41 - 58 290° 3 - 30.37 - 10 CLR None
2017-10-18 09:55 55 41 - 58 290° 3 - 30.37 - 10 CLR None
2017-10-18 09:35 52 41 - 66 260° 3 - 30.37 - 10 CLR None
2017-10-18 09:15 50 41 - 71 - Calm - 30.37 - 10 CLR None
2017-10-18 08:55 50 41 - 71 - Calm - 30.37 - 10 CLR None
2017-10-18 08:35 46 41 - 81 - Calm - 30.37 - 10 CLR None
2017-10-18 08:15 43 43 - 100 - Calm - 30.37 - 10 CLR None
2017-10-18 07:55 39 39 - 100 - Calm - 30.36 - 5 CLR None
2017-10-18 07:35 37 37 - 100 - Calm - 30.36 - 7 CLR None
2017-10-18 07:15 36 36 - 100 - Calm - 30.36 - 5 CLR None

Support USWX by starting your Amazon purchase here.